createdAt,value
2019-01-18T00:00:49.080Z,79.27
2019-01-18T00:01:49.144Z,79.37
2019-01-18T00:02:49.385Z,79.47
2019-01-18T00:03:49.396Z,79.2
2019-01-18T00:04:49.737Z,79.49
2019-01-18T00:05:49.074Z,80.07
2019-01-18T00:06:49.047Z,80.25
2019-01-18T00:08:02.296Z,80.14
2019-01-18T00:08:49.034Z,80.1
2019-01-18T00:09:49.128Z,80.06
2019-01-18T00:10:49.188Z,79.69
2019-01-18T00:11:49.249Z,79.86
2019-01-18T00:12:49.144Z,79.75
2019-01-18T00:13:49.094Z,79.56
2019-01-18T00:14:49.376Z,79.91
2019-01-18T00:15:49.115Z,79.61
2019-01-18T00:16:49.288Z,79.41
2019-01-18T00:17:49.189Z,79.64
2019-01-18T00:18:49.068Z,79.42
2019-01-18T00:19:48.859Z,79.54
2019-01-18T00:20:49.080Z,79.66
2019-01-18T00:21:49.113Z,79.32
2019-01-18T00:22:49.427Z,79.48
2019-01-18T00:23:49.835Z,79.2
2019-01-18T00:24:49.470Z,79.4
2019-01-18T00:25:49.041Z,79.14
2019-01-18T00:26:49.194Z,79.03
2019-01-18T00:27:49.058Z,78.65
2019-01-18T00:28:49.263Z,79.07
2019-01-18T00:29:49.066Z,78.55
2019-01-18T00:30:49.029Z,79.19
2019-01-18T00:31:49.131Z,79.41
2019-01-18T00:32:49.065Z,78.87
2019-01-18T00:33:49.088Z,78.75
2019-01-18T00:34:55.967Z,78.81
2019-01-18T00:35:49.071Z,78.78
2019-01-18T00:37:06.782Z,78.58
2019-01-18T00:37:48.997Z,78.95
2019-01-18T00:38:49.079Z,78.85
2019-01-18T00:39:49.320Z,78.68
2019-01-18T00:40:49.059Z,78.36
2019-01-18T00:41:49.248Z,78.38
2019-01-18T00:42:48.984Z,78.59
2019-01-18T00:43:49.065Z,78.38
2019-01-18T00:44:49.023Z,78.61
2019-01-18T00:45:49.082Z,78.72
2019-01-18T00:46:48.955Z,78.93
2019-01-18T00:47:48.992Z,78.57
2019-01-18T00:48:49.072Z,78.35
2019-01-18T00:49:49.064Z,78.51
2019-01-18T00:50:49.423Z,78.38
2019-01-18T00:51:49.096Z,78.63
2019-01-18T00:52:49.019Z,78.35
2019-01-18T00:53:49.769Z,78.13
2019-01-18T00:54:49.341Z,78.08
2019-01-18T00:55:50.593Z,78.12
2019-01-18T00:56:49.080Z,77.69
2019-01-18T00:57:49.037Z,77.45
2019-01-18T00:58:48.986Z,77.63
2019-01-18T00:59:49.281Z,77.65
2019-01-18T01:00:49.186Z,78.02
2019-01-18T01:01:48.995Z,77.89
2019-01-18T01:02:49.414Z,78.16
2019-01-18T01:03:50.446Z,78.16
2019-01-18T01:04:49.328Z,78.27
2019-01-18T01:05:49.326Z,77.99
2019-01-18T01:06:49.110Z,78.03
2019-01-18T01:07:49.667Z,77.62
2019-01-18T01:08:48.984Z,77.94
2019-01-18T01:09:50.575Z,78.1
2019-01-18T01:10:49.509Z,78.35
2019-01-18T01:11:49.675Z,78.41
2019-01-18T01:12:49.011Z,78.31
2019-01-18T01:13:49.175Z,78.33
2019-01-18T01:14:48.930Z,78.37
2019-01-18T01:15:48.992Z,78.02
2019-01-18T01:16:49.088Z,78.1
2019-01-18T01:17:49.031Z,78.47
2019-01-18T01:18:49.051Z,78.09
2019-01-18T01:19:49.018Z,78.19
2019-01-18T01:20:49.040Z,78.45
2019-01-18T01:21:49.243Z,78.13
2019-01-18T01:22:49.124Z,78.14
2019-01-18T01:23:49.246Z,77.6
2019-01-18T01:24:49.360Z,78.14
2019-01-18T01:25:49.033Z,78.33
2019-01-18T01:26:49.010Z,78.59
2019-01-18T01:27:48.947Z,78.76
2019-01-18T01:28:49.078Z,79.19
2019-01-18T01:29:49.274Z,79.21
2019-01-18T01:30:49.102Z,79.38
2019-01-18T01:31:48.977Z,79.2
2019-01-18T01:32:49.002Z,79.4
2019-01-18T01:33:49.227Z,79.45
2019-01-18T01:34:48.943Z,79.59
2019-01-18T01:35:49.021Z,79.16
2019-01-18T01:36:49.356Z,79.21
2019-01-18T01:37:49.090Z,79.01
2019-01-18T01:38:49.146Z,78.59
2019-01-18T01:39:49.184Z,78.84
2019-01-18T01:40:48.751Z,78.72
2019-01-18T01:41:48.985Z,78.35
2019-01-18T01:42:48.981Z,78.39
2019-01-18T01:44:09.981Z,77.61
2019-01-18T01:44:49.074Z,77.07
2019-01-18T01:45:49.042Z,77.37
2019-01-18T01:46:49.310Z,76.97
2019-01-18T01:47:49.116Z,76.65
2019-01-18T01:48:49.017Z,76.8
2019-01-18T01:49:49.002Z,76.25
2019-01-18T01:50:49.184Z,76.27
2019-01-18T01:51:49.012Z,75.76
2019-01-18T01:52:49.148Z,75.87
2019-01-18T01:53:49.159Z,75.81
2019-01-18T01:54:49.031Z,75.47
2019-01-18T01:55:49.167Z,74.78
2019-01-18T01:56:49.007Z,75.29
2019-01-18T01:58:49.089Z,75.25
2019-01-18T01:59:49.869Z,76.02
2019-01-18T02:00:48.950Z,76.26
2019-01-18T02:01:49.219Z,76.53
2019-01-18T02:02:48.925Z,77.11
2019-01-18T02:03:49.229Z,77.43
2019-01-18T02:04:50.742Z,77.75
2019-01-18T02:05:49.270Z,77.68
2019-01-18T02:06:55.460Z,78.06
2019-01-18T02:07:49.457Z,78.48
2019-01-18T02:08:48.929Z,78.55
2019-01-18T02:09:48.953Z,78.59
2019-01-18T02:10:48.948Z,78.98
2019-01-18T02:11:49.004Z,79.22
2019-01-18T02:12:48.932Z,79.64
2019-01-18T02:13:49.198Z,79.69
2019-01-18T02:14:48.969Z,79.91
2019-01-18T02:15:48.898Z,80.1
2019-01-18T02:16:49.034Z,80.26
2019-01-18T02:17:49.051Z,80.38
2019-01-18T02:18:48.924Z,80.39
2019-01-18T02:19:49.247Z,80.65
2019-01-18T02:20:48.937Z,80.7
2019-01-18T02:21:48.860Z,80.93
2019-01-18T02:22:49.171Z,80.84
2019-01-18T02:23:49.036Z,80.9
2019-01-18T02:24:48.401Z,80.94
2019-01-18T02:25:49.482Z,80.98
2019-01-18T02:26:49.233Z,81.25
2019-01-18T02:27:48.877Z,81.46
2019-01-18T02:28:48.976Z,81.55
2019-01-18T02:29:48.812Z,81.62
2019-01-18T02:30:48.955Z,81.28
2019-01-18T02:31:48.956Z,81.34
2019-01-18T02:32:48.964Z,81.45
2019-01-18T02:33:49.131Z,81.29
2019-01-18T02:34:48.916Z,81.52
2019-01-18T02:35:48.919Z,82.01
2019-01-18T02:36:48.822Z,81.63
2019-01-18T02:37:49.307Z,82.13
2019-01-18T02:38:48.963Z,81.7
2019-01-18T02:39:49.080Z,81.9
2019-01-18T02:40:48.931Z,82
2019-01-18T02:41:48.892Z,81.96
2019-01-18T02:42:49.092Z,81.75
2019-01-18T02:43:49.002Z,81.97
2019-01-18T02:44:49.628Z,82.09
2019-01-18T02:45:55.724Z,82.22
2019-01-18T02:46:50.696Z,82.3
2019-01-18T02:47:49.026Z,82.11
2019-01-18T02:48:48.920Z,82.42
2019-01-18T02:49:49.046Z,82.78
2019-01-18T02:50:49.075Z,82.67
2019-01-18T02:51:49.160Z,82.51
2019-01-18T02:52:48.910Z,82.39
2019-01-18T02:53:48.947Z,82.24
2019-01-18T02:54:48.799Z,82.46
2019-01-18T02:55:48.937Z,82.36
2019-01-18T02:56:48.945Z,82.33
2019-01-18T02:57:48.807Z,82.14
2019-01-18T02:58:48.857Z,82.4
2019-01-18T02:59:49.249Z,82.33
2019-01-18T03:00:48.906Z,82.22
2019-01-18T03:02:49.187Z,82.19
2019-01-18T03:03:48.809Z,82.27
2019-01-18T03:04:48.816Z,82.39
2019-01-18T03:05:49.159Z,82.47
2019-01-18T03:06:49.365Z,82.72
2019-01-18T03:07:48.812Z,82.3
2019-01-18T03:08:48.770Z,82.17
2019-01-18T03:09:48.978Z,82.03
2019-01-18T03:10:48.787Z,82.29
2019-01-18T03:11:49.204Z,82.48
2019-01-18T03:12:49.163Z,82.33
2019-01-18T03:13:48.761Z,82.22
2019-01-18T03:14:48.965Z,82.2
2019-01-18T03:15:48.907Z,82.31
2019-01-18T03:16:48.772Z,82.05
2019-01-18T03:17:49.268Z,82.16
2019-01-18T03:18:48.740Z,82.13
2019-01-18T03:19:49.153Z,82.03
2019-01-18T03:20:50.601Z,81.98
2019-01-18T03:21:48.757Z,82.38
2019-01-18T03:22:49.021Z,82.33
2019-01-18T03:23:49.062Z,82.13
2019-01-18T03:24:48.778Z,82.14
2019-01-18T03:25:48.737Z,81.92
2019-01-18T03:26:49.207Z,81.97
2019-01-18T03:27:49.059Z,82.19
2019-01-18T03:28:48.961Z,82.01
2019-01-18T03:29:48.758Z,82.31
2019-01-18T03:30:48.752Z,82.09
2019-01-18T03:31:49.041Z,81.9
2019-01-18T03:32:48.816Z,81.5
2019-01-18T03:33:48.747Z,81.65
2019-01-18T03:34:49.161Z,81.69
2019-01-18T03:35:48.753Z,81.84
2019-01-18T03:36:48.989Z,81.85
2019-01-18T03:37:49.002Z,82.02
2019-01-18T03:38:50.317Z,81.83
2019-01-18T03:39:48.728Z,81.7
2019-01-18T03:40:55.672Z,81.79
2019-01-18T03:41:49.003Z,81.51
2019-01-18T03:42:49.039Z,81.62
2019-01-18T03:43:48.864Z,81.68
2019-01-18T03:44:48.771Z,81.76
2019-01-18T03:45:48.925Z,81.73
2019-01-18T03:46:49.072Z,81.64
2019-01-18T03:47:48.712Z,81.55
2019-01-18T03:48:48.867Z,81.5
2019-01-18T03:49:48.876Z,81.55
2019-01-18T03:50:48.764Z,81.78
2019-01-18T03:52:48.754Z,81.35
2019-01-18T03:54:48.707Z,81.78
2019-01-18T03:55:48.709Z,81.73
2019-01-18T03:56:49.009Z,81.74
2019-01-18T03:57:48.989Z,81.92
2019-01-18T03:58:48.728Z,82.05
2019-01-18T03:59:49.232Z,81.76
2019-01-18T04:00:49.045Z,81.83
2019-01-18T04:01:48.717Z,81.91
2019-01-18T04:02:48.792Z,81.86
2019-01-18T04:03:48.705Z,81.64
2019-01-18T04:04:48.732Z,81.87
2019-01-18T04:05:48.969Z,82.08
2019-01-18T04:06:48.795Z,81.96
2019-01-18T04:07:48.681Z,82.01
2019-01-18T04:08:48.774Z,82.36
2019-01-18T04:09:48.701Z,82.11
2019-01-18T04:10:48.761Z,82.01
2019-01-18T04:11:48.885Z,82.16
2019-01-18T04:12:48.921Z,82
2019-01-18T04:13:48.699Z,81.99
2019-01-18T04:14:48.702Z,82.13
2019-01-18T04:15:48.735Z,82.2
2019-01-18T04:16:48.696Z,82.25
2019-01-18T04:17:48.699Z,81.83
2019-01-18T04:18:48.913Z,82.19
2019-01-18T04:20:49.540Z,82.21
2019-01-18T04:21:49.086Z,82.34
2019-01-18T04:22:48.759Z,82.16
2019-01-18T04:23:49.098Z,82.24
2019-01-18T04:24:49.521Z,82.14
2019-01-18T04:25:48.776Z,82.27
2019-01-18T04:26:48.663Z,82.3
2019-01-18T04:27:48.728Z,82.01
2019-01-18T04:28:48.755Z,82.02
2019-01-18T04:29:49.047Z,81.9
2019-01-18T04:30:48.770Z,82.18
2019-01-18T04:31:49.062Z,82.17
2019-01-18T04:32:48.908Z,82.23
2019-01-18T04:33:49.171Z,82.23
2019-01-18T04:34:49.128Z,82.54
2019-01-18T04:35:49.182Z,82.33
2019-01-18T04:36:49.467Z,82.3
2019-01-18T04:37:48.669Z,82
2019-01-18T04:38:49.583Z,82.3
2019-01-18T04:39:48.772Z,82.14
2019-01-18T04:40:52.609Z,82.32
2019-01-18T04:41:48.718Z,82.24
2019-01-18T04:42:48.807Z,82.19
2019-01-18T04:43:49.136Z,82.4
2019-01-18T04:44:48.958Z,82.27
2019-01-18T04:45:48.960Z,82.23
2019-01-18T04:46:48.962Z,82.48
2019-01-18T04:47:49.090Z,82.56
2019-01-18T04:48:48.720Z,82.83
2019-01-18T04:49:50.074Z,82.67
2019-01-18T04:50:48.848Z,82.37
2019-01-18T04:51:48.889Z,82.65
2019-01-18T04:52:48.640Z,82.6
2019-01-18T04:53:50.097Z,82.47
2019-01-18T04:54:48.600Z,82.59
2019-01-18T04:55:48.647Z,82.51
2019-01-18T04:56:48.855Z,82.43
2019-01-18T04:57:49.649Z,82.59
2019-01-18T04:58:49.039Z,82.58
2019-01-18T04:59:49.376Z,82.57
2019-01-18T05:00:48.646Z,82.74
2019-01-18T05:01:56.670Z,82.51
2019-01-18T05:02:49.073Z,82.72
2019-01-18T05:03:49.385Z,82.75
2019-01-18T05:04:48.980Z,83
2019-01-18T05:05:49.806Z,82.57
2019-01-18T05:06:48.745Z,82.86
2019-01-18T05:07:48.774Z,82.87
2019-01-18T05:08:48.787Z,82.65
2019-01-18T05:09:48.875Z,83.3
2019-01-18T05:10:48.667Z,83
2019-01-18T05:11:48.593Z,82.79
2019-01-18T05:12:48.593Z,83.03
2019-01-18T05:13:48.751Z,83.15
2019-01-18T05:14:48.703Z,82.93
2019-01-18T05:15:48.680Z,82.86
2019-01-18T05:16:48.640Z,82.88
2019-01-18T05:17:48.615Z,82.93
2019-01-18T05:18:49.083Z,82.83
2019-01-18T05:19:48.759Z,82.9
2019-01-18T05:20:49.020Z,83.08
2019-01-18T05:21:48.368Z,83.13
2019-01-18T05:22:48.668Z,83
2019-01-18T05:23:49.239Z,82.98
2019-01-18T05:24:54.856Z,83.16
2019-01-18T05:25:48.645Z,83.18
2019-01-18T05:26:48.622Z,83.19
2019-01-18T05:27:48.635Z,83.27
2019-01-18T05:28:48.723Z,83.07
2019-01-18T05:29:48.573Z,83.23
2019-01-18T05:30:48.891Z,83.07
2019-01-18T05:31:48.729Z,83.31
2019-01-18T05:32:48.966Z,83.19
2019-01-18T05:33:48.929Z,83.28
2019-01-18T05:34:49.103Z,83.34
2019-01-18T05:35:48.657Z,83.24
2019-01-18T05:36:48.578Z,83.59
2019-01-18T05:37:48.814Z,83.54
2019-01-18T05:38:49.202Z,83.54
2019-01-18T05:39:48.628Z,83.57
2019-01-18T05:40:48.624Z,83.55
2019-01-18T05:41:48.546Z,83.54
2019-01-18T05:42:48.549Z,83.6
2019-01-18T05:43:48.594Z,83.53
2019-01-18T05:44:48.620Z,83.67
2019-01-18T05:45:48.984Z,83.62
2019-01-18T05:46:48.600Z,83.6
2019-01-18T05:47:48.667Z,83.54
2019-01-18T05:48:48.589Z,83.62
2019-01-18T05:49:48.571Z,83.64
2019-01-18T05:50:48.342Z,83.73
2019-01-18T05:51:48.603Z,83.73
2019-01-18T05:52:48.925Z,83.56
2019-01-18T05:53:48.685Z,83.52
2019-01-18T05:54:48.587Z,83.6
2019-01-18T05:55:48.556Z,83.44
2019-01-18T05:56:48.587Z,83.98
2019-01-18T05:57:48.597Z,83.81
2019-01-18T05:58:48.551Z,83.72
2019-01-18T05:59:48.618Z,84.01
2019-01-18T06:00:55.100Z,83.81
2019-01-18T06:01:48.620Z,84
2019-01-18T06:02:48.717Z,83.85
2019-01-18T06:03:56.088Z,83.87
2019-01-18T06:04:48.803Z,84.19
2019-01-18T06:05:48.631Z,84.01
2019-01-18T06:06:48.634Z,84.03
2019-01-18T06:07:48.873Z,84.19
2019-01-18T06:08:48.546Z,84.33
2019-01-18T06:09:48.487Z,84.21
2019-01-18T06:10:48.516Z,84.28
2019-01-18T06:11:48.523Z,84.24
2019-01-18T06:12:55.197Z,84.17
2019-01-18T06:13:50.326Z,84.31
2019-01-18T06:14:48.570Z,83.86
2019-01-18T06:15:48.621Z,84.09
2019-01-18T06:16:48.818Z,84.21
2019-01-18T06:17:48.481Z,84.01
2019-01-18T06:18:48.484Z,84.17
2019-01-18T06:19:48.801Z,84.15
2019-01-18T06:20:48.769Z,84.08
2019-01-18T06:21:48.830Z,83.93
2019-01-18T06:22:48.729Z,84.24
2019-01-18T06:23:48.902Z,84.21
2019-01-18T06:24:48.530Z,84.21
2019-01-18T06:25:49.395Z,84.32
2019-01-18T06:26:48.814Z,84.33
2019-01-18T06:27:48.544Z,84.19
2019-01-18T06:28:49.300Z,84.54
2019-01-18T06:29:48.630Z,84.64
2019-01-18T06:30:48.788Z,84.04
2019-01-18T06:31:48.574Z,84.17
2019-01-18T06:32:48.546Z,83.67
2019-01-18T06:34:08.705Z,83.72
2019-01-18T06:34:48.514Z,83.97
2019-01-18T06:35:48.718Z,83.89
2019-01-18T06:36:48.593Z,84
2019-01-18T06:37:49.364Z,84.25
2019-01-18T06:38:48.452Z,84.31
2019-01-18T06:39:48.854Z,84.47
2019-01-18T06:40:48.697Z,84.58
2019-01-18T06:41:49.426Z,84.54
2019-01-18T06:42:48.562Z,84.64
2019-01-18T06:43:48.625Z,84.73
2019-01-18T06:44:48.522Z,84.48
2019-01-18T06:45:48.291Z,84.76
2019-01-18T06:46:49.013Z,84.6
2019-01-18T06:47:48.483Z,84.66
2019-01-18T06:48:48.507Z,85.2
2019-01-18T06:49:48.579Z,84.6
2019-01-18T06:50:48.602Z,84.49
2019-01-18T06:51:48.735Z,84.7
2019-01-18T06:52:48.765Z,84.63
2019-01-18T06:53:49.466Z,84.79
2019-01-18T06:54:48.751Z,85.12
2019-01-18T06:55:48.520Z,84.77
2019-01-18T06:57:08.014Z,84.67
2019-01-18T06:57:48.703Z,85.29
2019-01-18T06:58:48.693Z,85.04
2019-01-18T06:59:48.455Z,84.91
2019-01-18T07:00:49.246Z,84.97
2019-01-18T07:01:50.298Z,85.01
2019-01-18T07:02:49.007Z,84.59
2019-01-18T07:03:48.718Z,84.81
2019-01-18T07:04:48.499Z,84.85
2019-01-18T07:05:49.183Z,84.81
2019-01-18T07:06:48.637Z,85.1
2019-01-18T07:07:49.165Z,84.93
2019-01-18T07:08:48.422Z,84.82
2019-01-18T07:09:48.436Z,84.89
2019-01-18T07:10:48.774Z,84.7
2019-01-18T07:11:48.473Z,85.3
2019-01-18T07:12:48.529Z,84.86
2019-01-18T07:13:50.251Z,85.61
2019-01-18T07:14:48.609Z,85.25
2019-01-18T07:15:48.414Z,85.13
2019-01-18T07:16:48.519Z,84.92
2019-01-18T07:17:48.582Z,85.29
2019-01-18T07:18:48.416Z,85.01
2019-01-18T07:19:48.941Z,85.05
2019-01-18T07:20:48.479Z,84.98
2019-01-18T07:21:48.667Z,84.89
2019-01-18T07:22:48.472Z,84.94
2019-01-18T07:23:48.429Z,84.83
2019-01-18T07:24:48.456Z,84.62
2019-01-18T07:25:48.619Z,84.74
2019-01-18T07:26:48.391Z,84.62
2019-01-18T07:27:48.395Z,84.46
2019-01-18T07:28:48.509Z,84.53
2019-01-18T07:29:48.597Z,84.53
2019-01-18T07:30:48.450Z,84.35
2019-01-18T07:31:48.410Z,84.24
2019-01-18T07:32:49.427Z,84.23
2019-01-18T07:33:48.394Z,84.17
2019-01-18T07:34:48.618Z,84.27
2019-01-18T07:35:48.420Z,84.28
2019-01-18T07:36:48.422Z,84.17
2019-01-18T07:37:48.418Z,83.9
2019-01-18T07:38:48.355Z,84.13
2019-01-18T07:39:48.437Z,84.17
2019-01-18T07:40:48.499Z,84.28
2019-01-18T07:41:48.396Z,84.24
2019-01-18T07:42:48.430Z,84.13
2019-01-18T07:43:48.546Z,83.83
2019-01-18T07:45:05.587Z,83.63
2019-01-18T07:45:48.507Z,83.96
2019-01-18T07:46:47.917Z,84.28
2019-01-18T07:47:48.583Z,84.34
2019-01-18T07:48:48.520Z,84.53
2019-01-18T07:49:48.639Z,84.35
2019-01-18T07:50:48.339Z,84.41
2019-01-18T07:52:00.888Z,84.31
2019-01-18T07:52:48.532Z,84.36
2019-01-18T07:53:48.726Z,85.44
2019-01-18T07:54:48.374Z,85.45
2019-01-18T07:55:48.381Z,85.52
2019-01-18T07:56:48.439Z,85.79
2019-01-18T07:57:48.805Z,85.26
2019-01-18T07:58:48.759Z,85.91
2019-01-18T07:59:48.740Z,85.68
2019-01-18T08:00:48.725Z,85.44
2019-01-18T08:01:48.841Z,85.64
2019-01-18T08:03:48.692Z,86.16
2019-01-18T08:04:48.341Z,85.94
2019-01-18T08:05:50.005Z,86.04
2019-01-18T08:07:48.450Z,85.94
2019-01-18T08:08:48.667Z,85.95
2019-01-18T08:09:48.381Z,85.56
2019-01-18T08:10:48.337Z,85.37
2019-01-18T08:11:48.432Z,85.18
2019-01-18T08:12:50.131Z,84.87
2019-01-18T08:13:48.436Z,84.74
2019-01-18T08:14:48.517Z,84.44
2019-01-18T08:15:48.400Z,84.32
2019-01-18T08:16:48.582Z,84.78
2019-01-18T08:17:48.387Z,84.34
2019-01-18T08:18:48.595Z,84.56
2019-01-18T08:19:48.327Z,84.3
2019-01-18T08:21:56.510Z,84.35
2019-01-18T08:22:48.567Z,84.42
2019-01-18T08:23:48.352Z,84.17
2019-01-18T08:24:49.049Z,84.07
2019-01-18T08:25:48.388Z,84.19
2019-01-18T08:26:48.516Z,84.3
2019-01-18T08:27:48.277Z,84.36
2019-01-18T08:28:49.543Z,84.32
2019-01-18T08:29:55.296Z,84.25
2019-01-18T08:30:49.290Z,84.41
2019-01-18T08:31:48.190Z,84.28
2019-01-18T08:32:48.383Z,84.13
2019-01-18T08:33:48.355Z,84.3
2019-01-18T08:34:48.404Z,84.16
2019-01-18T08:35:48.314Z,84.2
2019-01-18T08:36:48.569Z,84.25
2019-01-18T08:37:48.677Z,84.35
2019-01-18T08:38:48.353Z,84.43
2019-01-18T08:39:48.434Z,84.58
2019-01-18T08:40:48.364Z,84.46
2019-01-18T08:41:49.318Z,84.35
2019-01-18T08:42:48.282Z,84.47
2019-01-18T08:43:50.112Z,84.54
2019-01-18T08:44:48.723Z,84.37
2019-01-18T08:45:48.432Z,84.6
2019-01-18T08:46:48.281Z,84.53
2019-01-18T08:47:48.390Z,84.42
2019-01-18T08:48:48.550Z,84.32
2019-01-18T08:49:48.328Z,84.58
2019-01-18T08:50:48.252Z,84.56
2019-01-18T08:51:48.449Z,84.41
2019-01-18T08:52:48.241Z,84.45
2019-01-18T08:53:48.431Z,84.16
2019-01-18T08:54:48.259Z,84.22
2019-01-18T08:55:48.320Z,84.2
2019-01-18T08:56:48.758Z,84.34
2019-01-18T08:57:48.417Z,84.41
2019-01-18T08:58:48.419Z,84.18
2019-01-18T08:59:48.370Z,84.04
2019-01-18T09:00:49.186Z,84.15
2019-01-18T09:01:48.651Z,84.23
2019-01-18T09:02:49.158Z,84.31
2019-01-18T09:03:48.499Z,84.48
2019-01-18T09:04:48.353Z,84.66
2019-01-18T09:05:51.491Z,84.53
2019-01-18T09:06:48.346Z,84.61
2019-01-18T09:07:48.295Z,84.66
2019-01-18T09:08:48.334Z,84.49
2019-01-18T09:10:03.110Z,84.52
2019-01-18T09:10:48.246Z,84.37
2019-01-18T09:11:48.273Z,84.12
2019-01-18T09:12:48.227Z,83.96
2019-01-18T09:13:48.317Z,84.01
2019-01-18T09:14:48.266Z,83.82
2019-01-18T09:15:48.342Z,83.76
2019-01-18T09:16:48.439Z,83.74
2019-01-18T09:17:48.228Z,83.79
2019-01-18T09:18:48.228Z,83.95
2019-01-18T09:19:48.237Z,84.17
2019-01-18T09:20:48.236Z,84.08
2019-01-18T09:21:48.220Z,84.04
2019-01-18T09:22:48.231Z,84.04
2019-01-18T09:23:48.264Z,84.01
2019-01-18T09:24:48.396Z,83.88
2019-01-18T09:25:48.250Z,84.08
2019-01-18T09:26:48.442Z,84.1
2019-01-18T09:27:48.431Z,84.25
2019-01-18T09:28:48.533Z,84.28
2019-01-18T09:29:49.558Z,84.01
2019-01-18T09:30:48.367Z,84.03
2019-01-18T09:31:48.553Z,84.14
2019-01-18T09:32:48.245Z,84.05
2019-01-18T09:33:48.355Z,83.96
2019-01-18T09:34:50.047Z,83.96
2019-01-18T09:35:49.028Z,83.97
2019-01-18T09:36:48.493Z,83.96
2019-01-18T09:37:48.487Z,83.97
2019-01-18T09:38:48.374Z,84.1
2019-01-18T09:39:48.611Z,84.08
2019-01-18T09:40:48.244Z,84.49
2019-01-18T09:41:48.619Z,84.09
2019-01-18T09:42:48.427Z,84.28
2019-01-18T09:43:48.634Z,84.04
2019-01-18T09:44:48.479Z,84.07
2019-01-18T09:45:48.289Z,83.96
2019-01-18T09:46:48.449Z,83.98
2019-01-18T09:47:48.283Z,83.99
2019-01-18T09:48:48.462Z,84.04
2019-01-18T09:49:48.436Z,83.66
2019-01-18T09:50:48.281Z,83.69
2019-01-18T09:51:48.262Z,83.65
2019-01-18T09:52:49.120Z,83.51
2019-01-18T09:53:48.251Z,83.47
2019-01-18T09:54:49.030Z,83.1
2019-01-18T09:55:48.222Z,83.36
2019-01-18T09:56:48.354Z,83.21
2019-01-18T09:57:48.427Z,82.5
2019-01-18T09:58:48.430Z,82.74
2019-01-18T09:59:48.388Z,82.83
2019-01-18T10:00:48.245Z,83.32
2019-01-18T10:01:49.998Z,83.26
2019-01-18T10:02:48.183Z,82.52
2019-01-18T10:04:12.327Z,82.45
2019-01-18T10:04:48.483Z,82.54
2019-01-18T10:05:48.241Z,82.38
2019-01-18T10:06:48.497Z,81.96
2019-01-18T10:07:48.502Z,82.31
2019-01-18T10:08:48.609Z,82.36
2019-01-18T10:09:48.310Z,82.41
2019-01-18T10:10:48.207Z,82.28
2019-01-18T10:11:48.170Z,81.49
2019-01-18T10:12:49.457Z,81.75
2019-01-18T10:13:48.543Z,81.59
2019-01-18T10:14:48.127Z,81.58
2019-01-18T10:15:48.228Z,81.03
2019-01-18T10:16:48.238Z,81.37
2019-01-18T10:17:48.367Z,81.29
2019-01-18T10:18:49.857Z,81.47
2019-01-18T10:19:48.272Z,80.91
2019-01-18T10:20:48.382Z,81.21
2019-01-18T10:21:49.941Z,80.81
2019-01-18T10:22:48.202Z,80.69
2019-01-18T10:23:48.226Z,80.2
2019-01-18T10:25:05.117Z,80.09
2019-01-18T10:25:48.168Z,80.3
2019-01-18T10:26:48.197Z,80.13
2019-01-18T10:27:48.352Z,80.14
2019-01-18T10:28:49.124Z,80.28
2019-01-18T10:29:48.552Z,80.25
2019-01-18T10:31:03.179Z,79.91
2019-01-18T10:31:55.845Z,79.56
2019-01-18T10:32:48.219Z,78.65
2019-01-18T10:33:48.330Z,79.48
2019-01-18T10:34:48.492Z,79.27
2019-01-18T10:36:11.924Z,78.36
2019-01-18T10:37:12.150Z,78.84
2019-01-18T10:38:13.499Z,77.79
2019-01-18T10:39:11.676Z,78.6
2019-01-18T10:40:13.511Z,78.75
2019-01-18T10:41:11.965Z,77.82
2019-01-18T10:42:12.493Z,77.49
2019-01-18T10:43:11.989Z,77.68
2019-01-18T10:44:11.735Z,78.37
2019-01-18T10:45:13.598Z,77.67
2019-01-18T10:46:12.667Z,77.18
2019-01-18T10:47:11.730Z,78.25
2019-01-18T10:48:12.442Z,77.79
2019-01-18T10:49:23.515Z,74.77
2019-01-18T10:50:11.778Z,74.94
2019-01-18T10:51:11.691Z,76.12
2019-01-18T10:52:12.210Z,76.44
2019-01-18T10:53:12.165Z,76.91
2019-01-18T10:54:12.060Z,77.09
2019-01-18T10:55:11.864Z,77.95
2019-01-18T10:56:12.144Z,77.94
2019-01-18T10:57:11.820Z,77.89
2019-01-18T10:58:12.226Z,78.35
2019-01-18T10:59:12.098Z,78.12
2019-01-18T11:00:11.692Z,78.55
2019-01-18T11:01:11.801Z,78.42
2019-01-18T11:02:11.682Z,78.04
2019-01-18T11:03:12.022Z,76.86
2019-01-18T11:04:11.772Z,76.03
2019-01-18T11:05:12.554Z,76.46
2019-01-18T11:06:11.709Z,75.01
2019-01-18T11:07:11.703Z,73.74
2019-01-18T11:08:17.250Z,73.44
2019-01-18T11:09:11.702Z,74.17
2019-01-18T11:10:11.752Z,74.73
2019-01-18T11:11:11.979Z,74.08
2019-01-18T11:12:13.479Z,72.91
2019-01-18T11:13:11.663Z,72.79
2019-01-18T11:14:12.203Z,72.7
2019-01-18T11:15:12.305Z,72.83
2019-01-18T11:16:11.909Z,72.45
2019-01-18T11:17:11.705Z,73.36
2019-01-18T11:18:12.580Z,73.76
2019-01-18T11:19:11.767Z,73.52
2019-01-18T11:20:12.030Z,72.58
2019-01-18T11:21:12.243Z,72.91
2019-01-18T11:22:12.057Z,72.91
2019-01-18T11:23:11.766Z,73.65
2019-01-18T11:24:11.756Z,73.83
2019-01-18T11:25:11.661Z,74.16
2019-01-18T11:26:11.626Z,74.07
2019-01-18T11:27:11.642Z,74.6
2019-01-18T11:28:12.069Z,74.02
2019-01-18T11:29:11.999Z,74.28
2019-01-18T11:30:19.331Z,73.97
2019-01-18T11:31:11.589Z,73.61
2019-01-18T11:32:13.755Z,73.39
2019-01-18T11:33:11.619Z,73.57
2019-01-18T11:34:11.920Z,73.06
2019-01-18T11:35:11.645Z,71.96
2019-01-18T11:36:13.453Z,71.63
2019-01-18T11:37:12.150Z,71.65
2019-01-18T11:38:12.264Z,72.66
2019-01-18T11:39:11.619Z,71.82
2019-01-18T11:40:11.564Z,72.36
2019-01-18T11:41:12.270Z,73.52
2019-01-18T11:42:12.759Z,72.7
2019-01-18T11:43:11.686Z,73.68
2019-01-18T11:44:11.746Z,73.75
2019-01-18T11:45:11.748Z,72.86
2019-01-18T11:46:11.603Z,72.05
2019-01-18T11:47:12.144Z,70.17
2019-01-18T11:48:11.722Z,69.74
2019-01-18T11:49:11.689Z,67.15
2019-01-18T11:50:12.036Z,66.72
2019-01-18T11:51:11.980Z,68.27
2019-01-18T11:52:11.779Z,68.97
2019-01-18T11:53:11.612Z,69.62
2019-01-18T11:54:20.150Z,71.25
2019-01-18T11:55:11.568Z,67.96
2019-01-18T11:56:11.979Z,68.01
2019-01-18T11:57:12.009Z,70.55
2019-01-18T11:58:12.090Z,71.58
2019-01-18T11:59:42.105Z,72.54
2019-01-18T12:00:40.575Z,72.37
2019-01-18T12:01:40.579Z,72.55
2019-01-18T12:02:42.078Z,73.42
2019-01-18T12:03:40.147Z,74.11
2019-01-18T12:04:40.297Z,74.17
2019-01-18T12:05:40.395Z,73.37
2019-01-18T12:06:47.288Z,73.55
2019-01-18T12:07:49.426Z,73.74
2019-01-18T12:08:41.866Z,73.84
2019-01-18T12:09:40.508Z,74.07
2019-01-18T12:10:40.026Z,73.51
2019-01-18T12:11:40.449Z,72.98
2019-01-18T12:12:40.502Z,73.51
2019-01-18T12:13:40.430Z,73.9
2019-01-18T12:14:40.248Z,73.83
2019-01-18T12:15:40.465Z,73.69
2019-01-18T12:16:40.351Z,73.73
2019-01-18T12:17:40.226Z,73.8
2019-01-18T12:18:40.344Z,73.18
2019-01-18T12:19:40.035Z,72.79
2019-01-18T12:20:40.291Z,72.92
2019-01-18T12:21:40.243Z,72.55
2019-01-18T12:22:40.619Z,72.27
2019-01-18T12:23:40.224Z,72.1
2019-01-18T12:24:40.263Z,72.49
2019-01-18T12:25:40.222Z,72.91
2019-01-18T12:26:40.547Z,72.81
2019-01-18T12:27:40.245Z,73.51
2019-01-18T12:28:40.233Z,73.29
2019-01-18T12:29:40.306Z,73.77
2019-01-18T12:30:41.013Z,73.58
2019-01-18T12:31:40.582Z,72.92
2019-01-18T12:32:42.058Z,72.55
2019-01-18T12:33:40.319Z,72.26
2019-01-18T12:34:40.347Z,71.66
2019-01-18T12:35:40.294Z,72.66
2019-01-18T12:36:40.487Z,72.49
2019-01-18T12:37:40.847Z,71.83
2019-01-18T12:38:40.529Z,71.83
2019-01-18T12:39:41.174Z,71.98
2019-01-18T12:40:40.350Z,72.13
2019-01-18T12:41:40.575Z,71.69
2019-01-18T12:42:40.769Z,71.8
2019-01-18T12:43:40.204Z,72.3
2019-01-18T12:44:40.420Z,71.82
2019-01-18T12:45:41.581Z,71.75
2019-01-18T12:46:40.524Z,71.98
2019-01-18T12:47:40.597Z,72.38
2019-01-18T12:48:40.499Z,72.87
2019-01-18T12:49:40.400Z,72.64
2019-01-18T12:50:40.503Z,72.32
2019-01-18T12:51:40.258Z,71.89
2019-01-18T12:52:40.171Z,71.87
2019-01-18T12:53:40.224Z,71.36
2019-01-18T12:54:40.742Z,71.34
2019-01-18T12:55:40.542Z,71.26
2019-01-18T12:56:40.744Z,71.18
2019-01-18T12:57:40.457Z,71.61
2019-01-18T12:58:40.274Z,71.46
2019-01-18T12:59:40.313Z,71.91
2019-01-18T13:00:40.177Z,71.98
2019-01-18T13:01:40.340Z,71.34
2019-01-18T13:02:40.334Z,70.35
2019-01-18T13:03:40.310Z,71.55
2019-01-18T13:04:40.382Z,70.9